sensor_id;sensor_type;location;lat;lon;timestamp;P1;durP1;ratioP1;P2;durP2;ratioP2
4452;SDS011;2239;48.152;11.584;2024-03-22T00:00:07;22.77;;;9.07;;
4452;SDS011;2239;48.152;11.584;2024-03-22T00:02:36;22.83;;;9.27;;
4452;SDS011;2239;48.152;11.584;2024-03-22T00:05:03;20.03;;;8.77;;
4452;SDS011;2239;48.152;11.584;2024-03-22T00:07:29;21.57;;;9.50;;
4452;SDS011;2239;48.152;11.584;2024-03-22T00:09:54;19.73;;;8.33;;
4452;SDS011;2239;48.152;11.584;2024-03-22T00:12:20;23.03;;;9.30;;
4452;SDS011;2239;48.152;11.584;2024-03-22T00:14:46;22.83;;;9.47;;
4452;SDS011;2239;48.152;11.584;2024-03-22T00:17:12;21.20;;;9.00;;
4452;SDS011;2239;48.152;11.584;2024-03-22T00:19:38;24.30;;;9.00;;
4452;SDS011;2239;48.152;11.584;2024-03-22T00:22:03;19.97;;;8.13;;
4452;SDS011;2239;48.152;11.584;2024-03-22T00:24:29;23.20;;;8.57;;
4452;SDS011;2239;48.152;11.584;2024-03-22T00:26:55;22.00;;;9.60;;
4452;SDS011;2239;48.152;11.584;2024-03-22T00:29:20;20.30;;;9.23;;
4452;SDS011;2239;48.152;11.584;2024-03-22T00:31:46;24.67;;;9.60;;
4452;SDS011;2239;48.152;11.584;2024-03-22T00:34:12;20.90;;;8.37;;
4452;SDS011;2239;48.152;11.584;2024-03-22T00:36:37;24.87;;;9.30;;
4452;SDS011;2239;48.152;11.584;2024-03-22T00:39:03;27.43;;;9.70;;
4452;SDS011;2239;48.152;11.584;2024-03-22T00:41:29;19.30;;;8.93;;
4452;SDS011;2239;48.152;11.584;2024-03-22T00:43:54;25.57;;;8.60;;
4452;SDS011;2239;48.152;11.584;2024-03-22T00:46:20;20.70;;;8.80;;
4452;SDS011;2239;48.152;11.584;2024-03-22T00:48:46;21.27;;;9.17;;
4452;SDS011;2239;48.152;11.584;2024-03-22T00:51:11;21.70;;;9.37;;
4452;SDS011;2239;48.152;11.584;2024-03-22T00:53:37;22.37;;;9.83;;
4452;SDS011;2239;48.152;11.584;2024-03-22T00:56:03;26.03;;;9.40;;
4452;SDS011;2239;48.152;11.584;2024-03-22T00:58:29;22.07;;;9.60;;
4452;SDS011;2239;48.152;11.584;2024-03-22T01:00:55;16.90;;;7.73;;
4452;SDS011;2239;48.152;11.584;2024-03-22T01:03:21;21.80;;;8.40;;
4452;SDS011;2239;48.152;11.584;2024-03-22T01:05:47;22.07;;;8.13;;
4452;SDS011;2239;48.152;11.584;2024-03-22T01:08:13;22.47;;;8.73;;
4452;SDS011;2239;48.152;11.584;2024-03-22T01:10:38;19.93;;;8.27;;
4452;SDS011;2239;48.152;11.584;2024-03-22T01:13:05;23.43;;;8.77;;
4452;SDS011;2239;48.152;11.584;2024-03-22T01:15:31;21.90;;;9.07;;
4452;SDS011;2239;48.152;11.584;2024-03-22T01:17:56;18.80;;;8.20;;
4452;SDS011;2239;48.152;11.584;2024-03-22T01:20:22;18.50;;;8.20;;
4452;SDS011;2239;48.152;11.584;2024-03-22T01:22:48;19.50;;;8.40;;
4452;SDS011;2239;48.152;11.584;2024-03-22T01:25:14;18.27;;;7.83;;
4452;SDS011;2239;48.152;11.584;2024-03-22T01:27:40;20.03;;;8.97;;
4452;SDS011;2239;48.152;11.584;2024-03-22T01:30:06;23.30;;;8.37;;
4452;SDS011;2239;48.152;11.584;2024-03-22T01:32:32;23.50;;;8.13;;
4452;SDS011;2239;48.152;11.584;2024-03-22T01:34:57;19.67;;;8.97;;
4452;SDS011;2239;48.152;11.584;2024-03-22T01:37:23;20.97;;;8.77;;
4452;SDS011;2239;48.152;11.584;2024-03-22T01:39:49;25.50;;;9.80;;
4452;SDS011;2239;48.152;11.584;2024-03-22T01:42:14;24.77;;;9.27;;
4452;SDS011;2239;48.152;11.584;2024-03-22T01:44:40;23.83;;;8.50;;
4452;SDS011;2239;48.152;11.584;2024-03-22T01:47:06;18.67;;;8.03;;
4452;SDS011;2239;48.152;11.584;2024-03-22T01:49:32;18.83;;;7.90;;
4452;SDS011;2239;48.152;11.584;2024-03-22T01:51:59;24.17;;;8.67;;
4452;SDS011;2239;48.152;11.584;2024-03-22T01:54:25;24.97;;;9.30;;
4452;SDS011;2239;48.152;11.584;2024-03-22T01:56:50;23.10;;;8.70;;
4452;SDS011;2239;48.152;11.584;2024-03-22T01:59:17;19.77;;;8.10;;
4452;SDS011;2239;48.152;11.584;2024-03-22T02:01:43;18.40;;;8.43;;
4452;SDS011;2239;48.152;11.584;2024-03-22T02:04:09;22.20;;;9.10;;
4452;SDS011;2239;48.152;11.584;2024-03-22T02:06:35;21.53;;;8.10;;
4452;SDS011;2239;48.152;11.584;2024-03-22T02:09:00;23.23;;;8.20;;
4452;SDS011;2239;48.152;11.584;2024-03-22T02:11:27;21.87;;;8.23;;
4452;SDS011;2239;48.152;11.584;2024-03-22T02:13:59;22.27;;;9.07;;
4452;SDS011;2239;48.152;11.584;2024-03-22T02:16:25;23.47;;;8.40;;
4452;SDS011;2239;48.152;11.584;2024-03-22T02:18:50;26.87;;;9.70;;
4452;SDS011;2239;48.152;11.584;2024-03-22T02:21:16;17.97;;;9.00;;
4452;SDS011;2239;48.152;11.584;2024-03-22T02:23:42;31.43;;;9.10;;
4452;SDS011;2239;48.152;11.584;2024-03-22T02:26:08;22.10;;;8.50;;
4452;SDS011;2239;48.152;11.584;2024-03-22T02:28:34;18.20;;;8.13;;
4452;SDS011;2239;48.152;11.584;2024-03-22T02:31:01;23.27;;;8.57;;
4452;SDS011;2239;48.152;11.584;2024-03-22T02:33:30;24.00;;;8.83;;
4452;SDS011;2239;48.152;11.584;2024-03-22T02:35:56;19.87;;;8.00;;
4452;SDS011;2239;48.152;11.584;2024-03-22T02:38:22;22.93;;;8.23;;
4452;SDS011;2239;48.152;11.584;2024-03-22T02:40:48;17.70;;;7.67;;
4452;SDS011;2239;48.152;11.584;2024-03-22T02:43:14;17.47;;;8.00;;
4452;SDS011;2239;48.152;11.584;2024-03-22T02:45:42;21.30;;;8.90;;
4452;SDS011;2239;48.152;11.584;2024-03-22T02:48:08;20.83;;;7.23;;
4452;SDS011;2239;48.152;11.584;2024-03-22T02:50:34;23.30;;;9.70;;
4452;SDS011;2239;48.152;11.584;2024-03-22T02:53:01;28.20;;;8.23;;
4452;SDS011;2239;48.152;11.584;2024-03-22T02:55:27;22.00;;;9.20;;
4452;SDS011;2239;48.152;11.584;2024-03-22T02:57:53;21.13;;;9.10;;
4452;SDS011;2239;48.152;11.584;2024-03-22T03:00:21;26.77;;;9.60;;
4452;SDS011;2239;48.152;11.584;2024-03-22T03:02:46;20.90;;;8.40;;
4452;SDS011;2239;48.152;11.584;2024-03-22T03:05:12;20.00;;;9.00;;
4452;SDS011;2239;48.152;11.584;2024-03-22T03:07:38;18.43;;;7.87;;
4452;SDS011;2239;48.152;11.584;2024-03-22T03:10:04;23.53;;;8.40;;
4452;SDS011;2239;48.152;11.584;2024-03-22T03:12:30;20.70;;;8.67;;
4452;SDS011;2239;48.152;11.584;2024-03-22T03:14:55;24.43;;;9.70;;
4452;SDS011;2239;48.152;11.584;2024-03-22T03:17:21;28.00;;;9.70;;
4452;SDS011;2239;48.152;11.584;2024-03-22T03:19:48;18.30;;;8.13;;
4452;SDS011;2239;48.152;11.584;2024-03-22T03:22:14;21.83;;;8.00;;
4452;SDS011;2239;48.152;11.584;2024-03-22T03:24:40;20.67;;;9.17;;
4452;SDS011;2239;48.152;11.584;2024-03-22T03:27:05;22.20;;;8.80;;
4452;SDS011;2239;48.152;11.584;2024-03-22T03:29:32;22.53;;;8.47;;
4452;SDS011;2239;48.152;11.584;2024-03-22T03:31:58;22.87;;;9.00;;
4452;SDS011;2239;48.152;11.584;2024-03-22T03:34:23;20.80;;;8.57;;
4452;SDS011;2239;48.152;11.584;2024-03-22T03:36:49;23.70;;;8.80;;
4452;SDS011;2239;48.152;11.584;2024-03-22T03:39:15;25.07;;;9.80;;
4452;SDS011;2239;48.152;11.584;2024-03-22T03:41:40;24.13;;;8.80;;
4452;SDS011;2239;48.152;11.584;2024-03-22T03:44:06;21.10;;;9.77;;
4452;SDS011;2239;48.152;11.584;2024-03-22T03:46:32;25.33;;;8.60;;
4452;SDS011;2239;48.152;11.584;2024-03-22T03:48:58;21.07;;;9.00;;
4452;SDS011;2239;48.152;11.584;2024-03-22T03:51:23;25.37;;;9.20;;
4452;SDS011;2239;48.152;11.584;2024-03-22T03:53:49;19.60;;;8.63;;
4452;SDS011;2239;48.152;11.584;2024-03-22T03:56:15;18.83;;;9.03;;
4452;SDS011;2239;48.152;11.584;2024-03-22T03:58:40;22.20;;;8.07;;
4452;SDS011;2239;48.152;11.584;2024-03-22T04:01:06;19.63;;;7.97;;
4452;SDS011;2239;48.152;11.584;2024-03-22T04:03:32;18.20;;;7.27;;
4452;SDS011;2239;48.152;11.584;2024-03-22T04:05:59;26.27;;;9.13;;
4452;SDS011;2239;48.152;11.584;2024-03-22T04:08:25;20.70;;;7.77;;
4452;SDS011;2239;48.152;11.584;2024-03-22T04:10:52;19.20;;;7.50;;
4452;SDS011;2239;48.152;11.584;2024-03-22T04:13:18;21.67;;;8.07;;
4452;SDS011;2239;48.152;11.584;2024-03-22T04:15:44;18.50;;;7.70;;
4452;SDS011;2239;48.152;11.584;2024-03-22T04:18:09;16.20;;;6.63;;
4452;SDS011;2239;48.152;11.584;2024-03-22T04:20:35;19.97;;;7.80;;
4452;SDS011;2239;48.152;11.584;2024-03-22T04:23:01;19.93;;;7.70;;
4452;SDS011;2239;48.152;11.584;2024-03-22T04:25:27;23.63;;;7.90;;
4452;SDS011;2239;48.152;11.584;2024-03-22T04:27:52;23.70;;;8.10;;
4452;SDS011;2239;48.152;11.584;2024-03-22T04:30:18;19.50;;;7.70;;
4452;SDS011;2239;48.152;11.584;2024-03-22T04:32:45;20.50;;;8.27;;
4452;SDS011;2239;48.152;11.584;2024-03-22T04:35:11;22.70;;;8.00;;
4452;SDS011;2239;48.152;11.584;2024-03-22T04:37:37;19.90;;;7.43;;
4452;SDS011;2239;48.152;11.584;2024-03-22T04:40:03;14.77;;;7.80;;
4452;SDS011;2239;48.152;11.584;2024-03-22T04:42:29;20.17;;;7.60;;
4452;SDS011;2239;48.152;11.584;2024-03-22T04:44:55;13.63;;;7.20;;
4452;SDS011;2239;48.152;11.584;2024-03-22T04:47:22;19.07;;;7.87;;
4452;SDS011;2239;48.152;11.584;2024-03-22T04:49:48;20.33;;;7.80;;
4452;SDS011;2239;48.152;11.584;2024-03-22T04:52:14;25.13;;;8.07;;
4452;SDS011;2239;48.152;11.584;2024-03-22T04:54:40;20.90;;;8.03;;
4452;SDS011;2239;48.152;11.584;2024-03-22T04:57:05;18.47;;;7.43;;
4452;SDS011;2239;48.152;11.584;2024-03-22T04:59:31;19.63;;;7.80;;
4452;SDS011;2239;48.152;11.584;2024-03-22T05:01:57;17.10;;;7.67;;
4452;SDS011;2239;48.152;11.584;2024-03-22T05:04:22;19.67;;;8.10;;
4452;SDS011;2239;48.152;11.584;2024-03-22T05:06:49;17.33;;;7.40;;
4452;SDS011;2239;48.152;11.584;2024-03-22T05:09:14;20.40;;;7.07;;
4452;SDS011;2239;48.152;11.584;2024-03-22T05:11:40;16.33;;;6.57;;
4452;SDS011;2239;48.152;11.584;2024-03-22T05:14:06;20.37;;;7.83;;
4452;SDS011;2239;48.152;11.584;2024-03-22T05:16:32;17.77;;;7.60;;
4452;SDS011;2239;48.152;11.584;2024-03-22T05:18:57;21.30;;;8.57;;
4452;SDS011;2239;48.152;11.584;2024-03-22T05:21:24;16.45;;;6.78;;
4452;SDS011;2239;48.152;11.584;2024-03-22T05:23:49;17.90;;;7.83;;
4452;SDS011;2239;48.152;11.584;2024-03-22T05:26:15;19.40;;;7.47;;
4452;SDS011;2239;48.152;11.584;2024-03-22T05:28:41;16.00;;;6.93;;
4452;SDS011;2239;48.152;11.584;2024-03-22T05:31:07;17.27;;;7.10;;
4452;SDS011;2239;48.152;11.584;2024-03-22T05:33:33;19.73;;;6.60;;
4452;SDS011;2239;48.152;11.584;2024-03-22T05:35:58;14.10;;;6.60;;
4452;SDS011;2239;48.152;11.584;2024-03-22T05:38:24;20.53;;;7.20;;
4452;SDS011;2239;48.152;11.584;2024-03-22T05:40:50;17.23;;;7.57;;
4452;SDS011;2239;48.152;11.584;2024-03-22T05:43:15;19.03;;;7.67;;
4452;SDS011;2239;48.152;11.584;2024-03-22T05:45:41;17.27;;;7.50;;
4452;SDS011;2239;48.152;11.584;2024-03-22T05:48:07;15.97;;;6.67;;
4452;SDS011;2239;48.152;11.584;2024-03-22T05:50:33;17.77;;;7.00;;
4452;SDS011;2239;48.152;11.584;2024-03-22T05:52:58;15.20;;;6.97;;
4452;SDS011;2239;48.152;11.584;2024-03-22T05:55:24;20.37;;;7.20;;
4452;SDS011;2239;48.152;11.584;2024-03-22T05:57:52;13.20;;;6.37;;
4452;SDS011;2239;48.152;11.584;2024-03-22T06:00:18;13.67;;;6.40;;
4452;SDS011;2239;48.152;11.584;2024-03-22T06:02:44;18.63;;;6.83;;
4452;SDS011;2239;48.152;11.584;2024-03-22T06:05:09;15.60;;;6.33;;
4452;SDS011;2239;48.152;11.584;2024-03-22T06:07:35;14.63;;;5.53;;
4452;SDS011;2239;48.152;11.584;2024-03-22T06:10:07;16.63;;;6.10;;
4452;SDS011;2239;48.152;11.584;2024-03-22T06:12:34;15.50;;;6.37;;
4452;SDS011;2239;48.152;11.584;2024-03-22T06:15:01;18.20;;;6.97;;
4452;SDS011;2239;48.152;11.584;2024-03-22T06:17:27;14.90;;;6.40;;
4452;SDS011;2239;48.152;11.584;2024-03-22T06:19:52;15.13;;;6.20;;
4452;SDS011;2239;48.152;11.584;2024-03-22T06:22:18;12.70;;;6.03;;
4452;SDS011;2239;48.152;11.584;2024-03-22T06:24:44;18.57;;;6.77;;
4452;SDS011;2239;48.152;11.584;2024-03-22T06:27:10;16.17;;;6.57;;
4452;SDS011;2239;48.152;11.584;2024-03-22T06:29:35;15.03;;;5.87;;
4452;SDS011;2239;48.152;11.584;2024-03-22T06:32:01;16.83;;;6.03;;
4452;SDS011;2239;48.152;11.584;2024-03-22T06:34:27;15.07;;;6.37;;
4452;SDS011;2239;48.152;11.584;2024-03-22T06:36:53;12.30;;;5.90;;
4452;SDS011;2239;48.152;11.584;2024-03-22T06:39:18;15.40;;;6.97;;
4452;SDS011;2239;48.152;11.584;2024-03-22T06:41:44;14.57;;;6.83;;
4452;SDS011;2239;48.152;11.584;2024-03-22T06:44:10;25.00;;;7.13;;
4452;SDS011;2239;48.152;11.584;2024-03-22T06:46:37;20.23;;;6.83;;
4452;SDS011;2239;48.152;11.584;2024-03-22T06:49:03;13.83;;;6.60;;
4452;SDS011;2239;48.152;11.584;2024-03-22T06:51:28;15.27;;;6.97;;
4452;SDS011;2239;48.152;11.584;2024-03-22T06:53:54;13.70;;;6.50;;
4452;SDS011;2239;48.152;11.584;2024-03-22T06:56:20;14.87;;;6.60;;
4452;SDS011;2239;48.152;11.584;2024-03-22T06:58:46;14.50;;;6.30;;
4452;SDS011;2239;48.152;11.584;2024-03-22T07:01:12;12.13;;;5.73;;
4452;SDS011;2239;48.152;11.584;2024-03-22T07:03:37;13.57;;;6.20;;
4452;SDS011;2239;48.152;11.584;2024-03-22T07:06:03;15.57;;;6.50;;
4452;SDS011;2239;48.152;11.584;2024-03-22T07:08:32;14.80;;;6.47;;
4452;SDS011;2239;48.152;11.584;2024-03-22T07:10:59;15.43;;;6.87;;
4452;SDS011;2239;48.152;11.584;2024-03-22T07:13:24;13.30;;;6.70;;
4452;SDS011;2239;48.152;11.584;2024-03-22T07:15:50;20.47;;;6.60;;
4452;SDS011;2239;48.152;11.584;2024-03-22T07:18:16;15.03;;;6.13;;
4452;SDS011;2239;48.152;11.584;2024-03-22T07:20:42;16.03;;;6.80;;
4452;SDS011;2239;48.152;11.584;2024-03-22T07:23:08;16.13;;;6.37;;
4452;SDS011;2239;48.152;11.584;2024-03-22T07:25:34;12.77;;;6.03;;
4452;SDS011;2239;48.152;11.584;2024-03-22T07:28:00;12.47;;;5.83;;
4452;SDS011;2239;48.152;11.584;2024-03-22T07:30:25;13.33;;;5.90;;
4452;SDS011;2239;48.152;11.584;2024-03-22T07:32:51;21.30;;;6.50;;
4452;SDS011;2239;48.152;11.584;2024-03-22T07:35:17;14.30;;;6.20;;
4452;SDS011;2239;48.152;11.584;2024-03-22T07:37:42;12.30;;;6.67;;
4452;SDS011;2239;48.152;11.584;2024-03-22T07:40:09;16.50;;;6.47;;
4452;SDS011;2239;48.152;11.584;2024-03-22T07:42:41;13.80;;;6.47;;
4452;SDS011;2239;48.152;11.584;2024-03-22T07:45:07;13.67;;;6.40;;
4452;SDS011;2239;48.152;11.584;2024-03-22T07:47:33;13.50;;;6.20;;
4452;SDS011;2239;48.152;11.584;2024-03-22T07:49:59;16.00;;;6.70;;
4452;SDS011;2239;48.152;11.584;2024-03-22T07:52:25;15.90;;;6.37;;
4452;SDS011;2239;48.152;11.584;2024-03-22T07:54:50;11.60;;;5.93;;
4452;SDS011;2239;48.152;11.584;2024-03-22T07:57:17;12.63;;;6.10;;
4452;SDS011;2239;48.152;11.584;2024-03-22T07:59:42;11.60;;;6.30;;
4452;SDS011;2239;48.152;11.584;2024-03-22T08:02:09;11.57;;;5.90;;
4452;SDS011;2239;48.152;11.584;2024-03-22T08:04:35;15.00;;;5.27;;
4452;SDS011;2239;48.152;11.584;2024-03-22T08:07:01;14.13;;;6.00;;
4452;SDS011;2239;48.152;11.584;2024-03-22T08:09:26;13.40;;;5.87;;
4452;SDS011;2239;48.152;11.584;2024-03-22T08:11:52;14.53;;;5.90;;
4452;SDS011;2239;48.152;11.584;2024-03-22T08:14:18;13.40;;;6.17;;
4452;SDS011;2239;48.152;11.584;2024-03-22T08:16:43;12.67;;;6.03;;
4452;SDS011;2239;48.152;11.584;2024-03-22T08:19:09;14.03;;;6.33;;
4452;SDS011;2239;48.152;11.584;2024-03-22T08:21:35;12.20;;;5.60;;
4452;SDS011;2239;48.152;11.584;2024-03-22T08:24:01;11.87;;;5.40;;
4452;SDS011;2239;48.152;11.584;2024-03-22T08:26:27;10.93;;;6.03;;
4452;SDS011;2239;48.152;11.584;2024-03-22T08:28:53;11.50;;;5.53;;
4452;SDS011;2239;48.152;11.584;2024-03-22T08:31:18;12.80;;;6.00;;
4452;SDS011;2239;48.152;11.584;2024-03-22T08:33:50;10.87;;;5.60;;
4452;SDS011;2239;48.152;11.584;2024-03-22T08:36:16;11.80;;;6.10;;
4452;SDS011;2239;48.152;11.584;2024-03-22T08:38:42;9.37;;;5.47;;
4452;SDS011;2239;48.152;11.584;2024-03-22T08:41:08;12.83;;;5.40;;
4452;SDS011;2239;48.152;11.584;2024-03-22T08:43:33;9.73;;;5.33;;
4452;SDS011;2239;48.152;11.584;2024-03-22T08:45:59;10.27;;;5.27;;
4452;SDS011;2239;48.152;11.584;2024-03-22T08:48:25;11.83;;;6.33;;
4452;SDS011;2239;48.152;11.584;2024-03-22T08:50:51;8.97;;;5.60;;
4452;SDS011;2239;48.152;11.584;2024-03-22T08:53:17;9.17;;;5.30;;
4452;SDS011;2239;48.152;11.584;2024-03-22T08:55:48;10.10;;;5.50;;
4452;SDS011;2239;48.152;11.584;2024-03-22T08:58:14;8.87;;;5.13;;
4452;SDS011;2239;48.152;11.584;2024-03-22T09:00:41;14.17;;;6.70;;
4452;SDS011;2239;48.152;11.584;2024-03-22T09:03:07;9.90;;;5.90;;
4452;SDS011;2239;48.152;11.584;2024-03-22T09:05:33;11.00;;;5.60;;
4452;SDS011;2239;48.152;11.584;2024-03-22T09:07:59;10.20;;;5.13;;
4452;SDS011;2239;48.152;11.584;2024-03-22T09:10:25;10.17;;;5.10;;
4452;SDS011;2239;48.152;11.584;2024-03-22T09:12:51;11.33;;;5.73;;
4452;SDS011;2239;48.152;11.584;2024-03-22T09:15:17;10.07;;;5.57;;
4452;SDS011;2239;48.152;11.584;2024-03-22T09:17:43;14.00;;;5.60;;
4452;SDS011;2239;48.152;11.584;2024-03-22T09:20:09;7.77;;;5.20;;
4452;SDS011;2239;48.152;11.584;2024-03-22T09:22:35;9.57;;;5.37;;
4452;SDS011;2239;48.152;11.584;2024-03-22T09:25:01;11.13;;;6.20;;
4452;SDS011;2239;48.152;11.584;2024-03-22T09:27:27;9.50;;;4.70;;
4452;SDS011;2239;48.152;11.584;2024-03-22T09:29:53;8.30;;;4.43;;
4452;SDS011;2239;48.152;11.584;2024-03-22T09:32:18;8.57;;;4.50;;
4452;SDS011;2239;48.152;11.584;2024-03-22T09:34:44;7.90;;;4.50;;
4452;SDS011;2239;48.152;11.584;2024-03-22T09:37:10;5.97;;;3.90;;
4452;SDS011;2239;48.152;11.584;2024-03-22T09:39:36;7.97;;;3.83;;
4452;SDS011;2239;48.152;11.584;2024-03-22T09:42:01;8.83;;;3.90;;
4452;SDS011;2239;48.152;11.584;2024-03-22T09:44:31;6.93;;;3.80;;
4452;SDS011;2239;48.152;11.584;2024-03-22T09:46:58;6.90;;;3.93;;
4452;SDS011;2239;48.152;11.584;2024-03-22T09:49:24;9.07;;;4.40;;
4452;SDS011;2239;48.152;11.584;2024-03-22T09:51:51;9.00;;;4.70;;
4452;SDS011;2239;48.152;11.584;2024-03-22T09:54:17;13.20;;;6.27;;
4452;SDS011;2239;48.152;11.584;2024-03-22T09:56:43;9.30;;;4.90;;
4452;SDS011;2239;48.152;11.584;2024-03-22T09:59:12;7.80;;;4.07;;
4452;SDS011;2239;48.152;11.584;2024-03-22T10:01:38;8.80;;;4.93;;
4452;SDS011;2239;48.152;11.584;2024-03-22T10:04:05;9.43;;;4.23;;
4452;SDS011;2239;48.152;11.584;2024-03-22T10:06:31;8.93;;;4.27;;
4452;SDS011;2239;48.152;11.584;2024-03-22T10:08:59;5.90;;;3.90;;
4452;SDS011;2239;48.152;11.584;2024-03-22T10:11:28;7.57;;;3.87;;
4452;SDS011;2239;48.152;11.584;2024-03-22T10:13:54;7.83;;;4.30;;
4452;SDS011;2239;48.152;11.584;2024-03-22T10:16:23;5.93;;;3.57;;
4452;SDS011;2239;48.152;11.584;2024-03-22T10:18:49;7.13;;;4.10;;
4452;SDS011;2239;48.152;11.584;2024-03-22T10:21:18;8.43;;;4.47;;
4452;SDS011;2239;48.152;11.584;2024-03-22T10:23:44;7.00;;;4.40;;
4452;SDS011;2239;48.152;11.584;2024-03-22T10:26:13;6.80;;;3.80;;
4452;SDS011;2239;48.152;11.584;2024-03-22T10:28:45;6.60;;;3.70;;
4452;SDS011;2239;48.152;11.584;2024-03-22T10:31:14;7.67;;;4.23;;
4452;SDS011;2239;48.152;11.584;2024-03-22T10:33:40;10.80;;;4.00;;
4452;SDS011;2239;48.152;11.584;2024-03-22T10:36:06;5.30;;;3.40;;
4452;SDS011;2239;48.152;11.584;2024-03-22T10:38:33;7.60;;;4.10;;
4452;SDS011;2239;48.152;11.584;2024-03-22T10:41:03;7.67;;;4.40;;
4452;SDS011;2239;48.152;11.584;2024-03-22T10:43:30;8.00;;;4.50;;
4452;SDS011;2239;48.152;11.584;2024-03-22T10:45:56;13.57;;;7.00;;
4452;SDS011;2239;48.152;11.584;2024-03-22T10:48:29;9.10;;;4.63;;
4452;SDS011;2239;48.152;11.584;2024-03-22T10:50:59;8.53;;;4.10;;
4452;SDS011;2239;48.152;11.584;2024-03-22T10:53:26;6.97;;;4.40;;
4452;SDS011;2239;48.152;11.584;2024-03-22T10:55:56;5.47;;;3.53;;
4452;SDS011;2239;48.152;11.584;2024-03-22T10:58:25;9.73;;;4.53;;
4452;SDS011;2239;48.152;11.584;2024-03-22T11:00:51;9.47;;;4.77;;
4452;SDS011;2239;48.152;11.584;2024-03-22T11:03:21;7.27;;;4.50;;
4452;SDS011;2239;48.152;11.584;2024-03-22T11:05:49;10.37;;;4.03;;
4452;SDS011;2239;48.152;11.584;2024-03-22T11:08:26;6.07;;;4.10;;
4452;SDS011;2239;48.152;11.584;2024-03-22T11:10:53;8.03;;;4.00;;
4452;SDS011;2239;48.152;11.584;2024-03-22T11:13:19;7.93;;;4.33;;
4452;SDS011;2239;48.152;11.584;2024-03-22T11:15:51;7.63;;;4.23;;
4452;SDS011;2239;48.152;11.584;2024-03-22T11:18:17;6.00;;;3.40;;
4452;SDS011;2239;48.152;11.584;2024-03-22T11:20:43;8.47;;;4.50;;
4452;SDS011;2239;48.152;11.584;2024-03-22T11:23:10;9.67;;;4.07;;
4452;SDS011;2239;48.152;11.584;2024-03-22T11:25:35;8.07;;;4.20;;
4452;SDS011;2239;48.152;11.584;2024-03-22T11:28:01;7.23;;;4.20;;
4452;SDS011;2239;48.152;11.584;2024-03-22T11:30:31;6.67;;;3.93;;
4452;SDS011;2239;48.152;11.584;2024-03-22T11:33:00;7.97;;;4.73;;
4452;SDS011;2239;48.152;11.584;2024-03-22T11:35:35;6.87;;;4.00;;
4452;SDS011;2239;48.152;11.584;2024-03-22T11:38:01;5.77;;;4.37;;
4452;SDS011;2239;48.152;11.584;2024-03-22T11:40:29;13.07;;;6.27;;
4452;SDS011;2239;48.152;11.584;2024-03-22T11:42:56;7.30;;;4.00;;
4452;SDS011;2239;48.152;11.584;2024-03-22T11:45:24;6.80;;;3.90;;
4452;SDS011;2239;48.152;11.584;2024-03-22T11:47:51;7.33;;;3.50;;
4452;SDS011;2239;48.152;11.584;2024-03-22T11:50:17;8.60;;;4.23;;
4452;SDS011;2239;48.152;11.584;2024-03-22T11:52:43;7.10;;;4.20;;
4452;SDS011;2239;48.152;11.584;2024-03-22T11:55:11;6.20;;;4.17;;
4452;SDS011;2239;48.152;11.584;2024-03-22T11:57:37;7.37;;;4.10;;
4452;SDS011;2239;48.152;11.584;2024-03-22T12:00:03;10.43;;;5.00;;
4452;SDS011;2239;48.152;11.584;2024-03-22T12:02:34;6.50;;;4.17;;
4452;SDS011;2239;48.152;11.584;2024-03-22T12:05:01;5.70;;;3.80;;
4452;SDS011;2239;48.152;11.584;2024-03-22T12:07:28;8.20;;;4.57;;
4452;SDS011;2239;48.152;11.584;2024-03-22T12:09:54;6.93;;;4.13;;
4452;SDS011;2239;48.152;11.584;2024-03-22T12:12:21;7.30;;;3.97;;
4452;SDS011;2239;48.152;11.584;2024-03-22T12:14:50;7.70;;;4.07;;
4452;SDS011;2239;48.152;11.584;2024-03-22T12:17:18;6.53;;;4.30;;
4452;SDS011;2239;48.152;11.584;2024-03-22T12:19:44;6.00;;;4.00;;
4452;SDS011;2239;48.152;11.584;2024-03-22T12:22:10;8.20;;;4.17;;
4452;SDS011;2239;48.152;11.584;2024-03-22T12:24:36;8.43;;;4.40;;
4452;SDS011;2239;48.152;11.584;2024-03-22T12:27:02;8.00;;;4.30;;
4452;SDS011;2239;48.152;11.584;2024-03-22T12:29:28;7.57;;;4.00;;
4452;SDS011;2239;48.152;11.584;2024-03-22T12:31:54;8.83;;;4.30;;
4452;SDS011;2239;48.152;11.584;2024-03-22T12:34:20;17.43;;;8.57;;
4452;SDS011;2239;48.152;11.584;2024-03-22T12:36:45;8.87;;;4.77;;
4452;SDS011;2239;48.152;11.584;2024-03-22T12:39:11;6.33;;;3.70;;
4452;SDS011;2239;48.152;11.584;2024-03-22T12:41:37;5.23;;;3.63;;
4452;SDS011;2239;48.152;11.584;2024-03-22T12:44:03;6.73;;;4.30;;
4452;SDS011;2239;48.152;11.584;2024-03-22T12:46:29;7.70;;;4.80;;
4452;SDS011;2239;48.152;11.584;2024-03-22T12:48:55;9.10;;;4.90;;
4452;SDS011;2239;48.152;11.584;2024-03-22T12:51:20;5.13;;;3.53;;
4452;SDS011;2239;48.152;11.584;2024-03-22T12:53:46;7.43;;;4.30;;
4452;SDS011;2239;48.152;11.584;2024-03-22T12:56:12;9.83;;;3.60;;
4452;SDS011;2239;48.152;11.584;2024-03-22T12:58:38;7.40;;;4.57;;
4452;SDS011;2239;48.152;11.584;2024-03-22T13:01:08;5.20;;;3.73;;
4452;SDS011;2239;48.152;11.584;2024-03-22T13:03:35;5.80;;;3.40;;
4452;SDS011;2239;48.152;11.584;2024-03-22T13:06:02;6.73;;;3.60;;
4452;SDS011;2239;48.152;11.584;2024-03-22T13:08:30;5.63;;;3.80;;
4452;SDS011;2239;48.152;11.584;2024-03-22T13:10:56;7.60;;;4.00;;
4452;SDS011;2239;48.152;11.584;2024-03-22T13:13:22;6.60;;;3.47;;
4452;SDS011;2239;48.152;11.584;2024-03-22T13:15:48;7.87;;;3.67;;
4452;SDS011;2239;48.152;11.584;2024-03-22T13:18:13;6.97;;;4.40;;
4452;SDS011;2239;48.152;11.584;2024-03-22T13:20:39;9.43;;;4.13;;
4452;SDS011;2239;48.152;11.584;2024-03-22T13:23:06;6.40;;;4.10;;
4452;SDS011;2239;48.152;11.584;2024-03-22T13:25:34;6.27;;;3.63;;
4452;SDS011;2239;48.152;11.584;2024-03-22T13:28:02;8.20;;;3.37;;
4452;SDS011;2239;48.152;11.584;2024-03-22T13:30:30;8.87;;;3.10;;
4452;SDS011;2239;48.152;11.584;2024-03-22T13:32:56;4.97;;;3.30;;
4452;SDS011;2239;48.152;11.584;2024-03-22T13:35:21;4.20;;;3.37;;
4452;SDS011;2239;48.152;11.584;2024-03-22T13:37:48;6.10;;;3.70;;
4452;SDS011;2239;48.152;11.584;2024-03-22T13:40:13;5.13;;;3.40;;
4452;SDS011;2239;48.152;11.584;2024-03-22T13:42:40;7.20;;;2.93;;
4452;SDS011;2239;48.152;11.584;2024-03-22T13:45:06;6.30;;;3.17;;
4452;SDS011;2239;48.152;11.584;2024-03-22T13:47:32;6.50;;;3.47;;
4452;SDS011;2239;48.152;11.584;2024-03-22T13:49:58;7.60;;;2.53;;
4452;SDS011;2239;48.152;11.584;2024-03-22T13:52:24;4.97;;;3.17;;
4452;SDS011;2239;48.152;11.584;2024-03-22T13:54:50;3.80;;;2.77;;
4452;SDS011;2239;48.152;11.584;2024-03-22T13:57:16;4.63;;;2.77;;
4452;SDS011;2239;48.152;11.584;2024-03-22T13:59:42;3.77;;;2.53;;
4452;SDS011;2239;48.152;11.584;2024-03-22T14:02:08;6.50;;;2.67;;
4452;SDS011;2239;48.152;11.584;2024-03-22T14:04:36;5.17;;;3.10;;
4452;SDS011;2239;48.152;11.584;2024-03-22T14:07:02;4.10;;;2.57;;
4452;SDS011;2239;48.152;11.584;2024-03-22T14:09:30;4.03;;;3.00;;
4452;SDS011;2239;48.152;11.584;2024-03-22T14:11:56;3.73;;;2.67;;
4452;SDS011;2239;48.152;11.584;2024-03-22T14:14:23;3.80;;;1.97;;
4452;SDS011;2239;48.152;11.584;2024-03-22T14:16:49;5.93;;;2.90;;
4452;SDS011;2239;48.152;11.584;2024-03-22T14:19:15;3.80;;;2.17;;
4452;SDS011;2239;48.152;11.584;2024-03-22T14:21:43;4.10;;;2.43;;
4452;SDS011;2239;48.152;11.584;2024-03-22T14:24:08;12.23;;;2.27;;
4452;SDS011;2239;48.152;11.584;2024-03-22T14:26:34;3.27;;;2.50;;
4452;SDS011;2239;48.152;11.584;2024-03-22T14:29:07;4.50;;;2.97;;
4452;SDS011;2239;48.152;11.584;2024-03-22T14:31:33;3.40;;;2.47;;
4452;SDS011;2239;48.152;11.584;2024-03-22T14:33:59;3.40;;;2.50;;
4452;SDS011;2239;48.152;11.584;2024-03-22T14:36:25;4.37;;;2.43;;
4452;SDS011;2239;48.152;11.584;2024-03-22T14:38:50;3.47;;;2.70;;
4452;SDS011;2239;48.152;11.584;2024-03-22T14:41:16;4.53;;;2.00;;
4452;SDS011;2239;48.152;11.584;2024-03-22T14:43:43;4.13;;;2.00;;
4452;SDS011;2239;48.152;11.584;2024-03-22T14:46:09;2.43;;;1.97;;